Wetterdaten: Woche 26.05.25 - 01.06.25 (KW22)
Datum Zeit Temp. I. Temp. A. Feuchte I. Feuchte A. Luftdruck Regen Wind Richtung Sonnenschein Solar Taupunkt Windchill Windböen
26.05.2025 00:00 21,3 °C 12,8 °C 57 % 93 % 1011,2 hPa 0,2 l/m² 1,3 km/h (1 Bft) W 0,00 h 0 W/m² 11,7 °C 12,8 °C 2,6 km/h (1 Bft)
26.05.2025 01:00 21,3 °C 12,0 °C 57 % 93 % 1011,3 hPa 0,0 l/m² 0,3 km/h (0 Bft) W 0,00 h 0 W/m² 11,0 °C 12,0 °C 0,6 km/h (0 Bft)
26.05.2025 02:00 21,3 °C 11,1 °C 57 % 94 % 1011,6 hPa 0,0 l/m² 0,4 km/h (0 Bft) W 0,00 h 0 W/m² 10,1 °C 11,1 °C 0,8 km/h (0 Bft)
26.05.2025 03:00 21,2 °C 12,1 °C 56 % 95 % 1012,4 hPa 1,0 l/m² 3,1 km/h (1 Bft) W 0,00 h 0 W/m² 11,3 °C 12,1 °C 6,4 km/h (2 Bft)
26.05.2025 04:00 21,2 °C 12,4 °C 56 % 94 % 1012,7 hPa 0,0 l/m² 2,3 km/h (1 Bft) W-SW 0,00 h 0 W/m² 11,5 °C 12,4 °C 4,9 km/h (1 Bft)
26.05.2025 05:00 21,3 °C 12,2 °C 57 % 94 % 1013,2 hPa 0,0 l/m² 3,8 km/h (1 Bft) W 0,00 h 9 W/m² 11,2 °C 12,1 °C 8,1 km/h (2 Bft)
26.05.2025 06:00 21,3 °C 11,9 °C 57 % 92 % 1014,1 hPa 0,0 l/m² 3,2 km/h (1 Bft) W 0,38 h 44 W/m² 10,8 °C 11,9 °C 7,7 km/h (2 Bft)
26.05.2025 07:00 21,4 °C 13,3 °C 56 % 87 % 1014,5 hPa 0,0 l/m² 3,5 km/h (1 Bft) W 1,00 h 215 W/m² 11,2 °C 13,3 °C 7,5 km/h (2 Bft)
26.05.2025 08:00 21,4 °C 14,2 °C 56 % 82 % 1014,9 hPa 0,0 l/m² 3,8 km/h (1 Bft) W 1,00 h 252 W/m² 11,2 °C 14,2 °C 7,6 km/h (2 Bft)
26.05.2025 09:00 21,5 °C 16,5 °C 55 % 74 % 1015,2 hPa 0,2 l/m² 3,9 km/h (1 Bft) SW 1,00 h 619 W/m² 11,8 °C 16,5 °C 7,2 km/h (2 Bft)
26.05.2025 10:00 21,6 °C 17,9 °C 55 % 64 % 1015,5 hPa 0,0 l/m² 5,2 km/h (1 Bft) W-SW 1,00 h 702 W/m² 11,0 °C 17,8 °C 8,7 km/h (2 Bft)
26.05.2025 11:00 21,6 °C 18,7 °C 55 % 58 % 1015,5 hPa 0,0 l/m² 4,9 km/h (1 Bft) W 1,00 h 595 W/m² 10,4 °C 18,6 °C 9,0 km/h (2 Bft)
26.05.2025 12:00 21,6 °C 18,8 °C 55 % 62 % 1015,5 hPa 0,0 l/m² 7,2 km/h (2 Bft) SW 0,98 h 555 W/m² 11,2 °C 18,2 °C 11,0 km/h (2 Bft)
26.05.2025 13:00 21,6 °C 20,5 °C 55 % 56 % 1015,4 hPa 0,0 l/m² 13,5 km/h (3 Bft) SW 1,00 h 952 W/m² 11,2 °C 18,2 °C 20,3 km/h (4 Bft)
26.05.2025 14:00 21,6 °C 21,3 °C 55 % 52 % 1015,0 hPa 0,0 l/m² 11,3 km/h (2 Bft) SW 1,02 h 912 W/m² 10,9 °C 19,8 °C 17,3 km/h (3 Bft)
26.05.2025 15:00 21,6 °C 20,7 °C 54 % 52 % 1015,1 hPa 0,0 l/m² 12,1 km/h (2 Bft) W-SW 0,98 h 449 W/m² 10,5 °C 18,9 °C 19,6 km/h (3 Bft)
26.05.2025 16:00 21,5 °C 18,0 °C 54 % 60 % 1015,7 hPa 0,0 l/m² 14,1 km/h (3 Bft) W-SW 1,02 h 102 W/m² 10,2 °C 15,2 °C 22,4 km/h (4 Bft)
26.05.2025 17:00 21,4 °C 16,6 °C 53 % 69 % 1016,0 hPa 0,0 l/m² 7,6 km/h (2 Bft) W-SW 1,00 h 129 W/m² 10,8 °C 15,8 °C 12,5 km/h (2 Bft)
26.05.2025 18:00 21,4 °C 18,0 °C 52 % 63 % 1016,0 hPa 0,0 l/m² 6,7 km/h (2 Bft) W-SW 1,00 h 173 W/m² 10,7 °C 17,5 °C 11,9 km/h (2 Bft)
26.05.2025 19:00 21,4 °C 17,6 °C 53 % 65 % 1016,2 hPa 0,0 l/m² 1,7 km/h (1 Bft) W 0,48 h 59 W/m² 10,8 °C 17,6 °C 3,7 km/h (1 Bft)
26.05.2025 20:00 21,5 °C 15,2 °C 55 % 78 % 1016,8 hPa 0,0 l/m² 0,6 km/h (0 Bft) W 0,08 h 29 W/m² 11,4 °C 15,2 °C 1,2 km/h (1 Bft)
26.05.2025 21:00 21,7 °C 13,1 °C 55 % 86 % 1017,4 hPa 0,0 l/m² 0,1 km/h (0 Bft) W 0,00 h 6 W/m² 10,8 °C 13,1 °C 0,2 km/h (0 Bft)
26.05.2025 22:00 21,7 °C 11,7 °C 56 % 88 % 1018,1 hPa 0,0 l/m² 0,6 km/h (0 Bft) W-NW 0,00 h 0 W/m² 9,8 °C 11,7 °C 1,0 km/h (0 Bft)
26.05.2025 23:00 21,5 °C 10,6 °C 56 % 89 % 1018,4 hPa 0,0 l/m² 0,0 km/h (0 Bft) W-NW 0,00 h 0 W/m² 8,8 °C 10,6 °C 0,0 km/h (0 Bft)
27.05.2025 00:00 21,4 °C 9,8 °C 56 % 91 % 1018,4 hPa 0,0 l/m² 0,1 km/h (0 Bft) W-NW 0,00 h 0 W/m² 8,4 °C 9,8 °C 0,2 km/h (0 Bft)
27.05.2025 01:00 21,4 °C 9,1 °C 55 % 92 % 1018,3 hPa 0,0 l/m² 0,7 km/h (0 Bft) W-NW 0,00 h 0 W/m² 7,9 °C 9,1 °C 1,2 km/h (1 Bft)
27.05.2025 02:00 21,4 °C 8,6 °C 55 % 92 % 1018,1 hPa 0,0 l/m² 0,8 km/h (0 Bft) O 0,00 h 0 W/m² 7,5 °C 8,6 °C 1,2 km/h (1 Bft)
27.05.2025 03:00 21,4 °C 7,9 °C 55 % 92 % 1018,0 hPa 0,0 l/m² 0,1 km/h (0 Bft) O 0,00 h 0 W/m² 6,7 °C 7,9 °C 0,5 km/h (0 Bft)
27.05.2025 04:00 21,4 °C 7,3 °C 55 % 92 % 1017,8 hPa 0,0 l/m² 0,8 km/h (0 Bft) O 0,00 h 0 W/m² 6,2 °C 7,3 °C 2,1 km/h (1 Bft)
27.05.2025 05:00 21,4 °C 7,4 °C 56 % 93 % 1017,9 hPa 0,0 l/m² 0,3 km/h (0 Bft) O 0,00 h 16 W/m² 6,3 °C 7,4 °C 0,8 km/h (0 Bft)
27.05.2025 06:00 21,4 °C 8,9 °C 55 % 93 % 1018,0 hPa 0,0 l/m² 2,0 km/h (1 Bft) O 0,82 h 73 W/m² 7,9 °C 8,9 °C 3,9 km/h (1 Bft)
27.05.2025 07:00 21,3 °C 10,6 °C 55 % 91 % 1018,1 hPa 0,0 l/m² 2,1 km/h (1 Bft) O 0,98 h 76 W/m² 9,2 °C 10,6 °C 4,2 km/h (1 Bft)
27.05.2025 08:00 21,4 °C 12,8 °C 55 % 86 % 1018,3 hPa 0,0 l/m² 8,0 km/h (2 Bft) S-SW 1,02 h 178 W/m² 10,5 °C 11,4 °C 11,2 km/h (2 Bft)
27.05.2025 09:00 21,4 °C 15,1 °C 54 % 76 % 1018,4 hPa 0,0 l/m² 12,5 km/h (2 Bft) S-SW 1,00 h 279 W/m² 10,9 °C 12,2 °C 17,9 km/h (3 Bft)
27.05.2025 10:00 21,5 °C 17,0 °C 54 % 70 % 1018,5 hPa 0,0 l/m² 12,9 km/h (3 Bft) S-SW 1,00 h 411 W/m² 11,6 °C 14,3 °C 17,6 km/h (3 Bft)
27.05.2025 11:00 21,6 °C 18,9 °C 54 % 66 % 1018,4 hPa 0,0 l/m² 14,6 km/h (3 Bft) S-SW 0,98 h 787 W/m² 12,3 °C 16,1 °C 21,1 km/h (4 Bft)
27.05.2025 12:00 21,6 °C 19,5 °C 55 % 63 % 1018,0 hPa 0,0 l/m² 15,3 km/h (3 Bft) S-SW 1,02 h 543 W/m² 12,2 °C 16,6 °C 21,8 km/h (4 Bft)
27.05.2025 13:00 21,6 °C 19,8 °C 55 % 60 % 1017,5 hPa 0,0 l/m² 17,8 km/h (3 Bft) S-SW 0,98 h 522 W/m² 11,7 °C 16,4 °C 25,6 km/h (4 Bft)
27.05.2025 14:00 21,6 °C 20,0 °C 58 % 59 % 1017,2 hPa 0,0 l/m² 18,6 km/h (3 Bft) S-SW 1,00 h 500 W/m² 11,6 °C 16,5 °C 25,9 km/h (4 Bft)
27.05.2025 15:00 21,7 °C 20,2 °C 58 % 59 % 1016,8 hPa 0,0 l/m² 17,8 km/h (3 Bft) S-SW 1,00 h 409 W/m² 11,8 °C 16,9 °C 25,5 km/h (4 Bft)
27.05.2025 16:00 21,7 °C 21,2 °C 57 % 55 % 1016,7 hPa 0,0 l/m² 19,1 km/h (3 Bft) SW 1,00 h 496 W/m² 11,9 °C 17,9 °C 27,3 km/h (5 Bft)
27.05.2025 17:00 21,7 °C 20,4 °C 57 % 57 % 1016,3 hPa 0,0 l/m² 16,1 km/h (3 Bft) SW 1,02 h 286 W/m² 11,5 °C 17,6 °C 21,3 km/h (4 Bft)
27.05.2025 18:00 21,7 °C 20,1 °C 56 % 56 % 1016,1 hPa 0,0 l/m² 15,2 km/h (3 Bft) S-SW 1,00 h 150 W/m² 11,1 °C 17,4 °C 20,3 km/h (4 Bft)
27.05.2025 19:00 21,7 °C 19,2 °C 57 % 60 % 1016,0 hPa 0,0 l/m² 9,0 km/h (2 Bft) S-SW 0,27 h 41 W/m² 11,3 °C 18,1 °C 12,3 km/h (2 Bft)
27.05.2025 20:00 21,8 °C 18,2 °C 57 % 64 % 1015,9 hPa 0,0 l/m² 7,2 km/h (2 Bft) S-SW 0,00 h 19 W/m² 11,3 °C 17,8 °C 9,7 km/h (2 Bft)
27.05.2025 21:00 21,9 °C 17,0 °C 57 % 69 % 1015,7 hPa 0,0 l/m² 4,7 km/h (1 Bft) S 0,00 h 0 W/m² 11,3 °C 17,0 °C 7,0 km/h (2 Bft)
27.05.2025 22:00 21,7 °C 16,3 °C 56 % 70 % 1015,4 hPa 0,0 l/m² 7,8 km/h (2 Bft) S 0,00 h 0 W/m² 10,8 °C 15,6 °C 11,3 km/h (2 Bft)
27.05.2025 23:00 21,6 °C 16,5 °C 56 % 69 % 1015,1 hPa 0,0 l/m² 8,7 km/h (2 Bft) S 0,00 h 0 W/m² 10,7 °C 15,3 °C 13,0 km/h (3 Bft)
28.05.2025 00:00 21,6 °C 16,5 °C 56 % 70 % 1014,9 hPa 0,0 l/m² 9,0 km/h (2 Bft) S-SW 0,00 h 0 W/m² 11,0 °C 15,3 °C 13,2 km/h (3 Bft)
28.05.2025 01:00 21,6 °C 15,8 °C 56 % 75 % 1014,3 hPa 0,0 l/m² 6,3 km/h (2 Bft) S-SW 0,00 h 0 W/m² 11,4 °C 15,5 °C 8,9 km/h (2 Bft)
28.05.2025 02:00 21,6 °C 16,0 °C 56 % 76 % 1013,5 hPa 0,0 l/m² 15,2 km/h (3 Bft) S-SW 0,00 h 0 W/m² 11,8 °C 12,7 °C 21,4 km/h (4 Bft)
28.05.2025 03:00 21,5 °C 15,4 °C 56 % 82 % 1012,9 hPa 0,0 l/m² 17,7 km/h (3 Bft) S-SW 0,00 h 0 W/m² 12,3 °C 11,0 °C 23,6 km/h (4 Bft)
28.05.2025 04:00 21,5 °C 14,7 °C 56 % 86 % 1012,2 hPa 0,0 l/m² 10,4 km/h (2 Bft) S-SW 0,00 h 0 W/m² 12,4 °C 12,6 °C 14,3 km/h (3 Bft)
28.05.2025 05:00 21,5 °C 15,2 °C 57 % 84 % 1011,7 hPa 0,0 l/m² 11,3 km/h (2 Bft) S-SW 0,00 h 11 W/m² 12,6 °C 12,8 °C 15,6 km/h (3 Bft)
28.05.2025 06:00 21,4 °C 15,4 °C 57 % 85 % 1011,3 hPa 0,0 l/m² 9,5 km/h (2 Bft) S-SW 0,00 h 23 W/m² 12,8 °C 13,8 °C 13,3 km/h (3 Bft)
28.05.2025 07:00 21,4 °C 15,2 °C 57 % 88 % 1011,3 hPa 0,2 l/m² 11,6 km/h (2 Bft) SW 0,00 h 22 W/m² 13,2 °C 12,9 °C 15,9 km/h (3 Bft)
28.05.2025 08:00 21,4 °C 15,0 °C 56 % 91 % 1011,3 hPa 0,6 l/m² 13,7 km/h (3 Bft) S-SW 0,63 h 63 W/m² 13,5 °C 11,7 °C 18,4 km/h (3 Bft)
28.05.2025 09:00 21,4 °C 15,1 °C 56 % 92 % 1011,6 hPa 0,4 l/m² 13,2 km/h (3 Bft) SW 0,88 h 92 W/m² 13,8 °C 12,1 °C 18,0 km/h (3 Bft)
28.05.2025 10:00 21,4 °C 16,3 °C 56 % 91 % 1011,6 hPa 0,0 l/m² 13,5 km/h (3 Bft) SW 1,00 h 218 W/m² 14,8 °C 13,4 °C 18,9 km/h (3 Bft)
28.05.2025 11:00 21,4 °C 17,7 °C 56 % 87 % 1011,4 hPa 0,0 l/m² 14,3 km/h (3 Bft) SW 1,00 h 415 W/m² 15,4 °C 14,7 °C 19,8 km/h (4 Bft)
28.05.2025 12:00 21,4 °C 18,5 °C 56 % 81 % 1011,4 hPa 0,0 l/m² 16,3 km/h (3 Bft) SW 1,00 h 331 W/m² 15,3 °C 15,2 °C 22,4 km/h (4 Bft)
28.05.2025 13:00 21,4 °C 17,8 °C 56 % 84 % 1011,0 hPa 0,0 l/m² 12,6 km/h (3 Bft) S-SW 1,00 h 268 W/m² 14,9 °C 15,3 °C 16,8 km/h (3 Bft)
28.05.2025 14:00 21,4 °C 19,0 °C 56 % 77 % 1010,8 hPa 0,0 l/m² 19,6 km/h (3 Bft) SW 1,00 h 441 W/m² 14,8 °C 15,1 °C 27,3 km/h (5 Bft)
28.05.2025 15:00 21,6 °C 20,9 °C 57 % 71 % 1010,7 hPa 0,0 l/m² 17,6 km/h (3 Bft) W-SW 1,00 h 781 W/m² 15,5 °C 17,9 °C 24,8 km/h (4 Bft)
28.05.2025 16:00 21,6 °C 16,3 °C 57 % 78 % 1011,5 hPa 3,4 l/m² 12,6 km/h (2 Bft) NW 0,42 h 143 W/m² 12,2 °C 14,0 °C 21,4 km/h (4 Bft)
28.05.2025 17:00 21,5 °C 13,8 °C 57 % 91 % 1012,2 hPa 0,0 l/m² 2,2 km/h (1 Bft) S-SW 0,48 h 60 W/m² 12,3 °C 13,8 °C 3,1 km/h (1 Bft)
28.05.2025 18:00 21,3 °C 15,2 °C 58 % 90 % 1012,2 hPa 0,0 l/m² 1,6 km/h (1 Bft) S-SW 1,00 h 142 W/m² 13,7 °C 15,2 °C 2,5 km/h (1 Bft)
28.05.2025 19:00 21,2 °C 15,4 °C 58 % 90 % 1012,8 hPa 0,0 l/m² 6,4 km/h (2 Bft) S-SW 0,57 h 73 W/m² 13,8 °C 15,0 °C 8,7 km/h (2 Bft)
28.05.2025 20:00 21,2 °C 14,9 °C 59 % 91 % 1013,5 hPa 0,0 l/m² 3,7 km/h (1 Bft) SW 0,17 h 37 W/m² 13,4 °C 14,9 °C 5,8 km/h (2 Bft)
28.05.2025 21:00 21,3 °C 14,4 °C 60 % 92 % 1014,3 hPa 0,0 l/m² 2,4 km/h (1 Bft) W-SW 0,00 h 5 W/m² 13,2 °C 14,4 °C 4,7 km/h (1 Bft)
28.05.2025 22:00 21,3 °C 14,1 °C 59 % 91 % 1014,9 hPa 0,0 l/m² 3,2 km/h (1 Bft) W 0,00 h 0 W/m² 12,7 °C 14,0 °C 6,7 km/h (2 Bft)
28.05.2025 23:00 21,3 °C 13,9 °C 59 % 90 % 1015,2 hPa 0,0 l/m² 4,0 km/h (1 Bft) W 0,00 h 0 W/m² 12,3 °C 13,7 °C 8,0 km/h (2 Bft)
30.05.2025 13:00 22,0 °C 24,1 °C 60 % 60 % 1018,9 hPa 0,0 l/m² 13,1 km/h (3 Bft) W 1,25 h 615 W/m² 16,0 °C 22,6 °C 19,1 km/h (3 Bft)
30.05.2025 14:00 21,9 °C 24,9 °C 60 % 60 % 1018,8 hPa 0,0 l/m² 14,5 km/h (3 Bft) W-SW 1,00 h 689 W/m² 16,6 °C 23,4 °C 20,3 km/h (4 Bft)
30.05.2025 15:00 22,2 °C 25,7 °C 60 % 57 % 1018,4 hPa 0,0 l/m² 13,6 km/h (3 Bft) W-SW 1,00 h 655 W/m² 16,6 °C 24,4 °C 19,7 km/h (3 Bft)
30.05.2025 16:00 22,1 °C 26,0 °C 60 % 55 % 1018,1 hPa 0,0 l/m² 11,5 km/h (2 Bft) W-SW 1,00 h 535 W/m² 16,3 °C 25,1 °C 17,5 km/h (3 Bft)
30.05.2025 17:00 22,1 °C 26,0 °C 61 % 54 % 1017,9 hPa 0,0 l/m² 13,0 km/h (3 Bft) W-SW 1,00 h 484 W/m² 16,0 °C 24,9 °C 19,1 km/h (3 Bft)
30.05.2025 18:00 22,1 °C 25,7 °C 60 % 55 % 1017,7 hPa 0,0 l/m² 12,0 km/h (2 Bft) W-SW 1,00 h 136 W/m² 16,1 °C 24,6 °C 17,1 km/h (3 Bft)
30.05.2025 19:00 22,0 °C 24,1 °C 60 % 63 % 1017,8 hPa 0,0 l/m² 5,5 km/h (2 Bft) N-NW 0,80 h 73 W/m² 16,7 °C 24,1 °C 8,5 km/h (2 Bft)
30.05.2025 20:00 22,0 °C 22,2 °C 60 % 72 % 1018,0 hPa 0,0 l/m² 1,2 km/h (1 Bft) NW 0,00 h 21 W/m² 16,9 °C 22,2 °C 2,8 km/h (1 Bft)
30.05.2025 21:00 21,9 °C 18,5 °C 60 % 84 % 1018,3 hPa 0,0 l/m² 0,0 km/h (0 Bft) N 0,00 h 6 W/m² 15,6 °C 18,5 °C 0,0 km/h (0 Bft)
30.05.2025 22:00 22,1 °C 16,9 °C 61 % 88 % 1018,5 hPa 0,0 l/m² 0,0 km/h (0 Bft) N 0,00 h 0 W/m² 14,9 °C 16,9 °C 0,0 km/h (0 Bft)
30.05.2025 23:00 22,1 °C 15,7 °C 61 % 91 % 1018,5 hPa 0,0 l/m² 0,1 km/h (0 Bft) N 0,00 h 0 W/m² 14,3 °C 15,7 °C 0,2 km/h (0 Bft)
31.05.2025 00:00 22,0 °C 15,6 °C 60 % 91 % 1018,6 hPa 0,0 l/m² 0,1 km/h (0 Bft) N 0,00 h 0 W/m² 14,2 °C 15,6 °C 0,2 km/h (0 Bft)
31.05.2025 01:00 21,9 °C 14,4 °C 60 % 93 % 1018,5 hPa 0,0 l/m² 0,0 km/h (0 Bft) N 0,00 h 0 W/m² 13,2 °C 14,4 °C 0,0 km/h (0 Bft)
31.05.2025 02:00 21,9 °C 13,9 °C 60 % 94 % 1018,6 hPa 0,0 l/m² 0,0 km/h (0 Bft) N 0,00 h 0 W/m² 12,9 °C 13,9 °C 0,0 km/h (0 Bft)
31.05.2025 03:00 21,9 °C 13,8 °C 60 % 94 % 1018,6 hPa 0,0 l/m² 0,0 km/h (0 Bft) N 0,00 h 0 W/m² 12,8 °C 13,8 °C 0,1 km/h (0 Bft)
31.05.2025 04:00 21,8 °C 13,5 °C 59 % 95 % 1018,6 hPa 0,0 l/m² 0,0 km/h (0 Bft) N 0,00 h 5 W/m² 12,7 °C 13,5 °C 0,0 km/h (0 Bft)
31.05.2025 05:00 21,8 °C 13,8 °C 59 % 95 % 1018,5 hPa 0,0 l/m² 0,0 km/h (0 Bft) N 0,02 h 20 W/m² 13,0 °C 13,8 °C 0,0 km/h (0 Bft)
31.05.2025 06:00 21,8 °C 14,9 °C 59 % 95 % 1018,4 hPa 0,0 l/m² 1,1 km/h (1 Bft) N 0,85 h 102 W/m² 14,1 °C 14,9 °C 2,1 km/h (1 Bft)
31.05.2025 07:00 21,8 °C 17,7 °C 59 % 90 % 1018,3 hPa 0,0 l/m² 0,6 km/h (0 Bft) N 1,00 h 214 W/m² 16,0 °C 17,7 °C 1,3 km/h (1 Bft)
31.05.2025 08:00 21,8 °C 21,0 °C 59 % 80 % 1018,3 hPa 0,0 l/m² 3,3 km/h (1 Bft) S-SW 1,00 h 362 W/m² 17,4 °C 21,0 °C 5,2 km/h (1 Bft)
31.05.2025 09:00 22,1 °C 23,2 °C 62 % 75 % 1018,2 hPa 0,0 l/m² 7,5 km/h (2 Bft) S-SW 1,00 h 578 W/m² 18,5 °C 22,8 °C 10,4 km/h (2 Bft)
31.05.2025 10:00 22,2 °C 24,9 °C 63 % 68 % 1017,9 hPa 0,0 l/m² 8,8 km/h (2 Bft) S-SW 1,00 h 675 W/m² 18,5 °C 24,3 °C 12,5 km/h (2 Bft)
31.05.2025 11:00 22,2 °C 26,2 °C 62 % 60 % 1017,7 hPa 0,0 l/m² 10,3 km/h (2 Bft) SW 1,00 h 845 W/m² 17,9 °C 25,5 °C 14,6 km/h (3 Bft)
31.05.2025 12:00 22,5 °C 26,8 °C 61 % 55 % 1017,6 hPa 0,0 l/m² 9,7 km/h (2 Bft) W-SW 1,00 h 862 W/m² 16,9 °C 26,2 °C 14,8 km/h (3 Bft)
31.05.2025 13:00 22,6 °C 27,8 °C 62 % 56 % 1017,2 hPa 0,0 l/m² 12,0 km/h (2 Bft) W-SW 1,00 h 922 W/m² 18,1 °C 27,0 °C 17,7 km/h (3 Bft)
31.05.2025 14:00 22,5 °C 27,0 °C 62 % 57 % 1016,9 hPa 0,0 l/m² 7,8 km/h (2 Bft) W 1,00 h 433 W/m² 17,7 °C 26,7 °C 12,6 km/h (2 Bft)
31.05.2025 15:00 22,5 °C 28,4 °C 63 % 55 % 1016,6 hPa 0,0 l/m² 5,2 km/h (1 Bft) W-SW 1,00 h 757 W/m² 18,3 °C 28,3 °C 9,8 km/h (2 Bft)
31.05.2025 16:00 22,8 °C 28,1 °C 63 % 55 % 1016,3 hPa 0,0 l/m² 4,7 km/h (1 Bft) N-NW 1,00 h 474 W/m² 18,3 °C 28,1 °C 7,8 km/h (2 Bft)
31.05.2025 17:00 22,8 °C 26,7 °C 62 % 60 % 1016,2 hPa 0,0 l/m² 5,4 km/h (2 Bft) N 1,00 h 220 W/m² 18,3 °C 26,7 °C 8,5 km/h (2 Bft)
31.05.2025 18:00 22,8 °C 26,1 °C 63 % 63 % 1016,0 hPa 0,0 l/m² 4,3 km/h (1 Bft) N-NW 1,00 h 170 W/m² 18,5 °C 26,1 °C 6,8 km/h (2 Bft)
31.05.2025 19:00 22,9 °C 25,0 °C 65 % 68 % 1016,0 hPa 0,0 l/m² 1,4 km/h (1 Bft) N-NO 0,68 h 66 W/m² 18,7 °C 25,0 °C 3,1 km/h (1 Bft)
31.05.2025 20:00 23,1 °C 22,3 °C 67 % 81 % 1016,0 hPa 0,0 l/m² 0,2 km/h (0 Bft) N 0,00 h 25 W/m² 18,9 °C 22,3 °C 0,4 km/h (0 Bft)
31.05.2025 21:00 23,2 °C 20,7 °C 66 % 87 % 1015,9 hPa 0,0 l/m² 0,1 km/h (0 Bft) N 0,00 h 6 W/m² 18,4 °C 20,7 °C 0,3 km/h (0 Bft)
31.05.2025 22:00 23,2 °C 19,5 °C 66 % 89 % 1016,1 hPa 0,0 l/m² 0,5 km/h (0 Bft) N 0,00 h 0 W/m² 17,6 °C 19,5 °C 0,8 km/h (0 Bft)
31.05.2025 23:00 23,0 °C 19,7 °C 65 % 89 % 1016,3 hPa 0,0 l/m² 3,9 km/h (1 Bft) N 0,00 h 0 W/m² 17,8 °C 19,2 °C 5,5 km/h (2 Bft)
01.06.2025 00:00 22,9 °C 19,5 °C 65 % 83 % 1015,8 hPa 0,0 l/m² 3,4 km/h (1 Bft) S 0,00 h 0 W/m² 16,5 °C 19,4 °C 5,4 km/h (2 Bft)
01.06.2025 01:00 22,8 °C 17,1 °C 64 % 87 % 1015,0 hPa 0,0 l/m² 0,7 km/h (0 Bft) S-SW 0,00 h 0 W/m² 15,0 °C 17,1 °C 1,6 km/h (1 Bft)
01.06.2025 02:00 22,8 °C 16,8 °C 64 % 88 % 1014,6 hPa 0,0 l/m² 0,7 km/h (0 Bft) SW 0,00 h 0 W/m² 14,8 °C 16,8 °C 2,3 km/h (1 Bft)
01.06.2025 03:00 22,7 °C 15,4 °C 63 % 91 % 1014,5 hPa 0,0 l/m² 0,5 km/h (0 Bft) N 0,00 h 0 W/m² 14,0 °C 15,4 °C 1,1 km/h (1 Bft)
01.06.2025 04:00 22,7 °C 14,8 °C 63 % 93 % 1014,5 hPa 0,0 l/m² 0,0 km/h (0 Bft) N 0,00 h 0 W/m² 13,6 °C 14,8 °C 0,1 km/h (0 Bft)
01.06.2025 05:00 22,6 °C 14,9 °C 62 % 94 % 1014,5 hPa 0,0 l/m² 0,1 km/h (0 Bft) N 0,38 h 39 W/m² 13,9 °C 14,9 °C 0,3 km/h (0 Bft)
01.06.2025 06:00 22,6 °C 16,6 °C 62 % 93 % 1014,6 hPa 0,0 l/m² 1,1 km/h (1 Bft) N 0,92 h 71 W/m² 15,5 °C 16,6 °C 2,2 km/h (1 Bft)
01.06.2025 07:00 22,6 °C 18,1 °C 62 % 88 % 1015,1 hPa 0,0 l/m² 6,9 km/h (2 Bft) W-SW 1,00 h 117 W/m² 16,1 °C 17,3 °C 10,0 km/h (2 Bft)
01.06.2025 08:00 22,6 °C 17,7 °C 62 % 88 % 1015,7 hPa 0,2 l/m² 4,8 km/h (1 Bft) W-SW 1,00 h 71 W/m² 15,7 °C 17,6 °C 8,3 km/h (2 Bft)
01.06.2025 09:00 22,8 °C 17,4 °C 63 % 90 % 1015,2 hPa 0,4 l/m² 2,4 km/h (1 Bft) SW 1,00 h 138 W/m² 15,8 °C 17,4 °C 4,1 km/h (1 Bft)
01.06.2025 10:00 22,9 °C 19,5 °C 63 % 87 % 1014,4 hPa 0,2 l/m² 6,2 km/h (2 Bft) S 1,00 h 396 W/m² 17,2 °C 19,1 °C 9,0 km/h (2 Bft)
01.06.2025 11:00 22,7 °C 21,6 °C 64 % 81 % 1014,0 hPa 0,0 l/m² 8,9 km/h (2 Bft) S-SO 1,00 h 766 W/m² 18,2 °C 20,8 °C 12,9 km/h (3 Bft)
01.06.2025 12:00 22,8 °C 23,1 °C 64 % 74 % 1013,4 hPa 0,0 l/m² 9,6 km/h (2 Bft) SO 1,00 h 638 W/m² 18,3 °C 22,2 °C 13,6 km/h (3 Bft)
01.06.2025 13:00 23,0 °C 24,3 °C 63 % 69 % 1012,9 hPa 0,0 l/m² 10,8 km/h (2 Bft) S-SO 1,00 h 584 W/m² 18,2 °C 23,2 °C 15,5 km/h (3 Bft)
01.06.2025 14:00 23,0 °C 24,6 °C 63 % 69 % 1012,7 hPa 0,0 l/m² 11,7 km/h (2 Bft) S 1,00 h 397 W/m² 18,6 °C 23,4 °C 16,4 km/h (3 Bft)
01.06.2025 15:00 23,0 °C 21,4 °C 63 % 78 % 1013,0 hPa 2,4 l/m² 14,3 km/h (3 Bft) SW 0,48 h 61 W/m² 17,4 °C 19,1 °C 19,7 km/h (3 Bft)
01.06.2025 16:00 23,2 °C 17,6 °C 64 % 89 % 1013,3 hPa 0,8 l/m² 9,8 km/h (2 Bft) SW 1,00 h 80 W/m² 15,8 °C 15,8 °C 13,9 km/h (3 Bft)
01.06.2025 17:00 23,0 °C 17,6 °C 63 % 91 % 1012,5 hPa 0,0 l/m² 6,1 km/h (2 Bft) SW 1,00 h 103 W/m² 16,1 °C 17,1 °C 9,5 km/h (2 Bft)
01.06.2025 18:00 22,9 °C 17,3 °C 64 % 91 % 1012,5 hPa 0,2 l/m² 5,3 km/h (1 Bft) SW 1,00 h 83 W/m² 15,8 °C 17,1 °C 7,8 km/h (2 Bft)
01.06.2025 19:00 23,0 °C 17,8 °C 64 % 89 % 1012,2 hPa 0,0 l/m² 9,3 km/h (2 Bft) S-SW 1,00 h 108 W/m² 16,0 °C 16,2 °C 13,4 km/h (3 Bft)
01.06.2025 20:00 23,2 °C 17,2 °C 65 % 90 % 1012,5 hPa 0,0 l/m² 3,4 km/h (1 Bft) SW 0,05 h 28 W/m² 15,5 °C 17,1 °C 5,4 km/h (2 Bft)
01.06.2025 21:00 23,2 °C 16,0 °C 64 % 92 % 1012,8 hPa 0,0 l/m² 1,4 km/h (1 Bft) SW 0,00 h 5 W/m² 14,7 °C 16,0 °C 2,1 km/h (1 Bft)
01.06.2025 22:00 23,1 °C 15,7 °C 64 % 93 % 1013,2 hPa 0,0 l/m² 1,8 km/h (1 Bft) S 0,00 h 0 W/m² 14,6 °C 15,7 °C 3,2 km/h (1 Bft)
01.06.2025 23:00 22,9 °C 14,5 °C 64 % 93 % 1013,4 hPa 0,0 l/m² 0,4 km/h (0 Bft) W-SW 0,00 h 0 W/m² 13,4 °C 14,5 °C 1,2 km/h (1 Bft)
Min-Datum _ 28.05.25 27.05.25 26.05.25 26.05.25 28.05.25 - 01.06.25 - - - 27.05.25 27.05.25 01.06.25
_ Min-Zeit 20:11 05:00 18:00 13:52 15:58 - 23:04 - - - 05:00 05:00 23:04
Minimum _ 21,1 °C 7,2 °C 52 % 46 % 1010,4 hPa - 0,0 km/h (0 Bft) - - - 6,0 °C 7,2 °C 0,0 km/h (0 Bft)
Max-Datum _ 01.06.25 31.05.25 31.05.25 31.05.25 30.05.25 28.05.25 28.05.25 - 30.05.25 27.05.25 31.05.25 31.05.25 28.05.25
_ Max-Zeit 21:02 15:43 20:27 07:00 14:01 16:22 15:46 - 13:44 13:28 16:01 15:43 16:10
Maximum _ 23,3 °C 29,1 °C 68 % 95 % 1019,0 hPa 3,4 l/m² 32,2 km/h
W-SW (5 Bft)
- 1,00 h 1165 W/m² 20,2 °C 29,1 °C 45,1 km/h
NW (6 Bft)
Durchschnitt _ 21,9 °C 17,6 °C 59 % 79 % 1015,4 hPa #10,2 l/m² 6,6 km/h (2 Bft) SW #72:37 h 209 W/m² 13,6 °C 16,8 °C 9,8 km/h (2 Bft)
© 2009 Mathias Hoßbach